Time;durP1;ratioP1;P1;durP2;ratioP2;P2;SDS_P1;SDS_P2;PMS_P1;PMS_P2;Temp;Humidity;BMP_temperature;BMP_pressure;BME280_temperature;BME280_humidity;BME280_pressure;Samples;Min_cycle;Max_cycle;Signal;HPM_P1;HPM_P2
2022/02/21 00:00:10;;;;;;;6.63;1.42;;;;;;;;;;5050034;28;20051;-75
2022/02/21 00:02:42;;;;;;;7.07;1.15;;;;;;;;;;5067560;28;20052;-75
2022/02/21 00:05:08;;;;;;;5.22;1.30;;;;;;;;;;5067529;28;20019;-75
2022/02/21 00:07:35;;;;;;;3.90;1.13;;;;;;;;;;5049625;28;20096;-75
2022/02/21 00:10:03;;;;;;;2.92;0.98;;;;;;;;;;5051760;28;20059;-76
2022/02/21 00:12:31;;;;;;;6.47;1.15;;;;;;;;;;5050293;28;20052;-74
2022/02/21 00:14:56;;;;;;;4.30;0.98;;;;;;;;;;5070277;28;20663;-75
2022/02/21 00:17:22;;;;;;;6.32;0.93;;;;;;;;;;5068116;28;20047;-74
2022/02/21 00:19:47;;;;;;;5.95;1.25;;;;;;;;;;5070608;28;20472;-76
2022/02/21 00:22:15;;;;;;;4.95;1.05;;;;;;;;;;5070114;28;20074;-75
2022/02/21 00:24:40;;;;;;;3.90;0.90;;;;;;;;;;5050786;28;20077;-76
2022/02/21 00:27:06;;;;;;;5.55;0.88;;;;;;;;;;5070121;28;20028;-74
2022/02/21 00:29:31;;;;;;;5.53;1.00;;;;;;;;;;5067559;28;20016;-74
2022/02/21 00:31:57;;;;;;;5.50;1.38;;;;;;;;;;5069082;28;20020;-75
2022/02/21 00:34:22;;;;;;;4.88;1.00;;;;;;;;;;5069836;28;20085;-76
2022/02/21 00:36:48;;;;;;;8.65;2.17;;;;;;;;;;5050503;28;20140;-75
2022/02/21 00:39:13;;;;;;;5.47;1.10;;;;;;;;;;5070694;28;20032;-74
2022/02/21 00:41:39;;;;;;;7.50;1.52;;;;;;;;;;5069880;28;20043;-74
2022/02/21 00:44:04;;;;;;;3.58;1.02;;;;;;;;;;5068692;28;20036;-74
2022/02/21 00:46:30;;;;;;;5.40;1.17;;;;;;;;;;5066978;28;20024;-75
2022/02/21 00:48:55;;;;;;;3.13;1.52;;;;;;;;;;5071295;28;20019;-75
2022/02/21 00:51:23;;;;;;;3.30;1.25;;;;;;;;;;5073642;28;20020;-74
2022/02/21 00:53:49;;;;;;;3.35;1.02;;;;;;;;;;5068830;28;20036;-75
2022/02/21 00:56:14;;;;;;;4.32;1.23;;;;;;;;;;5050793;28;20046;-75
2022/02/21 00:58:39;;;;;;;4.72;1.20;;;;;;;;;;5051020;28;20028;-75
2022/02/21 01:01:05;;;;;;;4.47;1.40;;;;;;;;;;5070138;28;20700;-75
2022/02/21 01:03:31;;;;;;;5.20;1.02;;;;;;;;;;5068847;28;20074;-74
2022/02/21 01:05:56;;;;;;;6.15;1.08;;;;;;;;;;5050806;28;20079;-74
2022/02/21 01:08:21;;;;;;;5.45;1.20;;;;;;;;;;5070106;28;20028;-74
2022/02/21 01:10:47;;;;;;;4.75;1.13;;;;;;;;;;5070670;28;20476;-74
2022/02/21 01:13:12;;;;;;;2.05;1.10;;;;;;;;;;5071555;28;20016;-75
2022/02/21 01:15:38;;;;;;;4.43;1.25;;;;;;;;;;5069902;28;20031;-75
2022/02/21 01:18:03;;;;;;;5.97;1.25;;;;;;;;;;5070134;28;20028;-75
2022/02/21 01:20:29;;;;;;;4.15;1.48;;;;;;;;;;5069027;28;20032;-75
2022/02/21 01:22:57;;;;;;;5.13;1.25;;;;;;;;;;5069569;28;20472;-76
2022/02/21 01:25:23;;;;;;;7.10;1.27;;;;;;;;;;5051852;28;20085;-75
2022/02/21 01:27:48;;;;;;;4.45;1.10;;;;;;;;;;5068434;28;20123;-76
2022/02/21 01:30:18;;;;;;;4.20;1.30;;;;;;;;;;5068333;28;20032;-75
2022/02/21 01:32:44;;;;;;;7.55;1.23;;;;;;;;;;5070923;28;20035;-75
2022/02/21 01:35:10;;;;;;;3.33;1.55;;;;;;;;;;5085811;28;20024;-75
2022/02/21 01:37:37;;;;;;;4.30;1.20;;;;;;;;;;5074191;28;20436;-76
2022/02/21 01:40:08;;;;;;;6.30;1.13;;;;;;;;;;5073755;28;20024;-76
2022/02/21 01:42:35;;;;;;;4.30;1.25;;;;;;;;;;5055399;28;20020;-75
2022/02/21 01:45:01;;;;;;;7.68;1.23;;;;;;;;;;5052348;28;20115;-75
2022/02/21 01:47:29;;;;;;;3.78;1.05;;;;;;;;;;5068826;28;20071;-75
2022/02/21 01:49:54;;;;;;;1.83;1.00;;;;;;;;;;5071267;28;20024;-74
2022/02/21 01:52:20;;;;;;;3.78;1.30;;;;;;;;;;5074321;28;20023;-74
2022/02/21 01:54:46;;;;;;;4.53;0.90;;;;;;;;;;5073256;28;20116;-75
2022/02/21 01:57:12;;;;;;;4.40;1.17;;;;;;;;;;5071017;28;20065;-76
2022/02/21 01:59:39;;;;;;;5.50;1.20;;;;;;;;;;5053869;28;20492;-75
2022/02/21 02:02:06;;;;;;;6.93;1.00;;;;;;;;;;5072218;28;20099;-76
2022/02/21 02:04:31;;;;;;;2.28;0.80;;;;;;;;;;5071230;28;20020;-76
2022/02/21 02:06:58;;;;;;;6.75;1.15;;;;;;;;;;5074319;28;20099;-76
2022/02/21 02:09:23;;;;;;;6.35;1.25;;;;;;;;;;5076712;28;20024;-75
2022/02/21 02:11:50;;;;;;;4.65;1.20;;;;;;;;;;5072528;28;20485;-75
2022/02/21 02:14:36;;;;;;;4.13;1.13;;;;;;;;;;5072189;28;20166;-75
2022/02/21 02:17:10;;;;;;;4.10;0.90;;;;;;;;;;5054065;28;20107;-75
2022/02/21 02:19:38;;;;;;;3.92;1.55;;;;;;;;;;5072311;28;20037;-75
2022/02/21 02:22:17;;;;;;;3.38;0.90;;;;;;;;;;5071798;28;20082;-75
2022/02/21 02:24:44;;;;;;;4.97;1.17;;;;;;;;;;5069189;28;20024;-75
2022/02/21 02:27:10;;;;;;;5.63;0.98;;;;;;;;;;5069899;28;20095;-75
2022/02/21 02:29:37;;;;;;;1.40;0.75;;;;;;;;;;5053011;28;20025;-75
2022/02/21 02:32:05;;;;;;;2.25;0.90;;;;;;;;;;5052484;28;20056;-75
2022/02/21 02:34:33;;;;;;;1.67;0.85;;;;;;;;;;5069900;28;20039;-75
2022/02/21 02:36:58;;;;;;;1.88;0.82;;;;;;;;;;5070462;28;20380;-75
2022/02/21 02:39:25;;;;;;;3.58;0.90;;;;;;;;;;5067975;28;20116;-76
2022/02/21 02:41:51;;;;;;;2.13;0.70;;;;;;;;;;5070158;28;20029;-75
2022/02/21 02:44:17;;;;;;;1.63;0.68;;;;;;;;;;5069588;28;20035;-75
2022/02/21 02:46:42;;;;;;;1.85;0.73;;;;;;;;;;5071861;28;20025;-74
2022/02/21 02:49:08;;;;;;;3.63;0.90;;;;;;;;;;5067978;28;20028;-74
2022/02/21 02:51:33;;;;;;;2.67;0.80;;;;;;;;;;5070878;28;20067;-75
2022/02/21 02:53:59;;;;;;;1.65;0.65;;;;;;;;;;5071589;28;20488;-75
2022/02/21 02:56:24;;;;;;;1.05;0.73;;;;;;;;;;5053321;28;20040;-75
2022/02/21 02:58:49;;;;;;;3.10;0.70;;;;;;;;;;5053926;28;20123;-74
2022/02/21 03:01:15;;;;;;;2.65;0.75;;;;;;;;;;5070511;28;20438;-75
2022/02/21 03:03:40;;;;;;;2.05;0.60;;;;;;;;;;5071585;28;20031;-75
2022/02/21 03:06:06;;;;;;;0.65;0.45;;;;;;;;;;5050115;28;20603;-76
2022/02/21 03:08:31;;;;;;;3.65;0.75;;;;;;;;;;5069735;28;20206;-76
2022/02/21 03:10:57;;;;;;;2.58;0.82;;;;;;;;;;5069526;28;20025;-75
2022/02/21 03:13:22;;;;;;;4.05;0.70;;;;;;;;;;5071501;28;20024;-75
2022/02/21 03:15:48;;;;;;;1.38;0.55;;;;;;;;;;5052562;28;20101;-74
2022/02/21 03:18:13;;;;;;;2.13;0.50;;;;;;;;;;5073571;28;20024;-74
2022/02/21 03:20:39;;;;;;;1.88;0.68;;;;;;;;;;5074087;28;20021;-74
2022/02/21 03:23:04;;;;;;;1.48;0.60;;;;;;;;;;5053558;28;20399;-75
2022/02/21 03:25:30;;;;;;;3.60;0.52;;;;;;;;;;5051901;28;20033;-76
2022/02/21 03:27:56;;;;;;;2.58;0.57;;;;;;;;;;5069267;28;20025;-76
2022/02/21 03:30:22;;;;;;;2.85;0.80;;;;;;;;;;5052133;28;20431;-75
2022/02/21 03:32:47;;;;;;;3.20;0.93;;;;;;;;;;5052296;28;20032;-75
2022/02/21 03:35:13;;;;;;;4.00;0.63;;;;;;;;;;5069064;28;20070;-75
2022/02/21 03:37:39;;;;;;;3.90;0.60;;;;;;;;;;5071089;28;20465;-75
2022/02/21 03:40:06;;;;;;;3.80;0.40;;;;;;;;;;5067485;28;20095;-74
2022/02/21 03:42:32;;;;;;;1.10;0.60;;;;;;;;;;5052887;28;20114;-75
2022/02/21 03:45:01;;;;;;;1.80;0.50;;;;;;;;;;5069530;28;20101;-75
2022/02/21 03:47:26;;;;;;;2.08;0.90;;;;;;;;;;5070600;28;20515;-74
2022/02/21 03:49:52;;;;;;;1.20;0.60;;;;;;;;;;5067255;28;20028;-75
2022/02/21 03:52:17;;;;;;;4.40;0.60;;;;;;;;;;5070738;28;20070;-76
2022/02/21 03:54:45;;;;;;;3.65;0.50;;;;;;;;;;5051465;28;20086;-74
2022/02/21 03:57:10;;;;;;;1.45;0.90;;;;;;;;;;5069156;28;20060;-75
2022/02/21 03:59:36;;;;;;;1.83;0.40;;;;;;;;;;5069692;28;20091;-75
2022/02/21 04:02:03;;;;;;;2.90;0.55;;;;;;;;;;5052492;28;20291;-75
2022/02/21 04:04:33;;;;;;;0.47;0.40;;;;;;;;;;5069093;28;20531;-74
2022/02/21 04:06:58;;;;;;;1.00;0.50;;;;;;;;;;5070124;28;20059;-75
2022/02/21 04:09:26;;;;;;;1.85;0.32;;;;;;;;;;5069139;28;20060;-75
2022/02/21 04:11:52;;;;;;;5.13;0.90;;;;;;;;;;5070159;28;20473;-77
2022/02/21 04:14:17;;;;;;;4.65;0.93;;;;;;;;;;5071872;28;20047;-75
2022/02/21 04:16:42;;;;;;;4.25;0.85;;;;;;;;;;5055015;28;20059;-76
2022/02/21 04:19:10;;;;;;;1.77;0.30;;;;;;;;;;5068962;28;20394;-75
2022/02/21 04:21:36;;;;;;;1.00;0.30;;;;;;;;;;5070137;28;20031;-76
2022/02/21 04:24:02;;;;;;;1.00;0.30;;;;;;;;;;5055459;28;20033;-74
2022/02/21 04:26:28;;;;;;;1.35;0.30;;;;;;;;;;5069092;28;20051;-75
2022/02/21 04:28:53;;;;;;;0.10;0.10;;;;;;;;;;5070750;28;20528;-74
2022/02/21 04:31:19;;;;;;;0.40;0.22;;;;;;;;;;5053262;28;20029;-74
2022/02/21 04:33:45;;;;;;;0.20;0.10;;;;;;;;;;5088001;28;20107;-75
2022/02/21 04:36:15;;;;;;;0.77;0.30;;;;;;;;;;5070992;28;20028;-76
2022/02/21 04:38:40;;;;;;;;;;;;;;;;;;5069588;28;20032;-75
2022/02/21 04:41:06;;;;;;;2.25;0.40;;;;;;;;;;5066781;28;19912;-75
2022/02/21 04:43:34;;;;;;;1.65;0.30;;;;;;;;;;5071441;28;20047;-75
2022/02/21 04:46:00;;;;;;;0.45;0.20;;;;;;;;;;5051163;28;20086;-75
2022/02/21 04:48:27;;;;;;;1.58;0.60;;;;;;;;;;5052004;28;20103;-75
2022/02/21 04:50:54;;;;;;;1.48;0.65;;;;;;;;;;5069462;28;20036;-76
2022/02/21 04:53:20;;;;;;;4.38;1.00;;;;;;;;;;5068776;28;20451;-74
2022/02/21 04:55:48;;;;;;;1.70;0.70;;;;;;;;;;5067376;28;20032;-74
2022/02/21 04:58:14;;;;;;;2.20;0.77;;;;;;;;;;5068628;28;20082;-75
2022/02/21 05:00:39;;;;;;;2.22;0.60;;;;;;;;;;5069952;28;20025;-75
2022/02/21 05:03:07;;;;;;;2.70;0.77;;;;;;;;;;5070056;28;20089;-75
2022/02/21 05:05:33;;;;;;;2.58;0.60;;;;;;;;;;5069630;28;20020;-73
2022/02/21 05:07:58;;;;;;;4.57;0.50;;;;;;;;;;5067863;28;20473;-74
2022/02/21 05:10:26;;;;;;;1.75;0.50;;;;;;;;;;5068427;28;20037;-75
2022/02/21 05:12:54;;;;;;;1.10;0.57;;;;;;;;;;5055889;28;20400;-75
2022/02/21 05:15:19;;;;;;;2.88;0.85;;;;;;;;;;5071387;28;20028;-75
2022/02/21 05:17:45;;;;;;;1.65;0.38;;;;;;;;;;5055923;28;20025;-75
2022/02/21 05:20:11;;;;;;;2.10;0.77;;;;;;;;;;5072840;28;20028;-74
2022/02/21 05:22:37;;;;;;;3.40;1.67;;;;;;;;;;5071741;28;20039;-75
2022/02/21 05:25:04;;;;;;;5.85;1.80;;;;;;;;;;5073567;28;20447;-74
2022/02/21 05:27:36;;;;;;;7.00;1.00;;;;;;;;;;5068679;28;20063;-74
2022/02/21 05:30:05;;;;;;;2.72;0.70;;;;;;;;;;5071431;28;20062;-75
2022/02/21 05:32:31;;;;;;;2.22;1.08;;;;;;;;;;5072009;28;20081;-73
2022/02/21 05:34:59;;;;;;;4.85;1.05;;;;;;;;;;5071756;28;20432;-73
2022/02/21 05:37:27;;;;;;;2.83;0.90;;;;;;;;;;5052395;28;20029;-74
2022/02/21 05:39:52;;;;;;;3.92;1.35;;;;;;;;;;5053433;28;20423;-74
2022/02/21 05:42:18;;;;;;;7.57;1.15;;;;;;;;;;5072699;28;20038;-75
2022/02/21 05:44:43;;;;;;;5.50;1.80;;;;;;;;;;5073704;28;20386;-75
2022/02/21 05:47:12;;;;;;;3.05;1.67;;;;;;;;;;5070113;28;20392;-74
2022/02/21 05:49:37;;;;;;;6.43;1.45;;;;;;;;;;5054944;28;20291;-73
2022/02/21 05:52:03;;;;;;;6.00;1.83;;;;;;;;;;5073053;28;20063;-74
2022/02/21 05:54:29;;;;;;;6.45;1.20;;;;;;;;;;5073098;28;20115;-74
2022/02/21 05:56:55;;;;;;;6.63;0.93;;;;;;;;;;5073062;28;20420;-74
2022/02/21 05:59:21;;;;;;;7.88;1.10;;;;;;;;;;5073564;28;20032;-74
2022/02/21 06:01:47;;;;;;;5.32;1.08;;;;;;;;;;5070781;28;20040;-75
2022/02/21 06:04:12;;;;;;;11.15;1.38;;;;;;;;;;5070532;28;20414;-75
2022/02/21 06:06:38;;;;;;;8.63;1.35;;;;;;;;;;5070142;28;20028;-75
2022/02/21 06:09:04;;;;;;;6.40;0.90;;;;;;;;;;5071279;28;20055;-74
2022/02/21 06:11:33;;;;;;;4.75;1.42;;;;;;;;;;5056497;28;20166;-77
2022/02/21 06:13:58;;;;;;;6.43;1.05;;;;;;;;;;5057064;28;20051;-74
2022/02/21 06:16:26;;;;;;;4.43;1.80;;;;;;;;;;5057975;28;20036;-74
2022/02/21 06:18:54;;;;;;;7.97;1.00;;;;;;;;;;5055869;28;20031;-75
2022/02/21 06:21:20;;;;;;;3.20;1.13;;;;;;;;;;5072221;28;20041;-74
2022/02/21 06:23:47;;;;;;;3.88;1.00;;;;;;;;;;5070977;28;20086;-75
2022/02/21 06:26:13;;;;;;;7.05;1.60;;;;;;;;;;5070786;28;20021;-74
2022/02/21 06:28:38;;;;;;;4.88;1.33;;;;;;;;;;5070702;28;20036;-74
2022/02/21 06:31:08;;;;;;;7.00;1.15;;;;;;;;;;5071584;28;20024;-74
2022/02/21 06:33:34;;;;;;;4.43;1.65;;;;;;;;;;5070607;28;20048;-74
2022/02/21 06:36:02;;;;;;;7.32;1.75;;;;;;;;;;5050155;28;20500;-77
2022/02/21 06:38:30;;;;;;;3.55;1.40;;;;;;;;;;5065544;28;20052;-77
2022/02/21 06:40:56;;;;;;;6.65;0.90;;;;;;;;;;5068637;28;20026;-76
2022/02/21 06:43:21;;;;;;;3.00;0.77;;;;;;;;;;5070352;28;20032;-76
2022/02/21 06:45:49;;;;;;;5.15;1.17;;;;;;;;;;5050953;28;20025;-76
2022/02/21 06:48:15;;;;;;;6.03;1.00;;;;;;;;;;5050690;28;20059;-75
2022/02/21 06:50:40;;;;;;;7.90;1.70;;;;;;;;;;5069241;28;20059;-76
2022/02/21 06:53:06;;;;;;;4.78;1.63;;;;;;;;;;5055273;28;20028;-75
2022/02/21 06:55:32;;;;;;;4.95;1.33;;;;;;;;;;5069690;28;20420;-75
2022/02/21 06:57:57;;;;;;;9.85;1.63;;;;;;;;;;5052358;28;20533;-73
2022/02/21 07:00:23;;;;;;;7.13;1.73;;;;;;;;;;5069055;28;20036;-75
2022/02/21 07:02:49;;;;;;;11.55;1.50;;;;;;;;;;5069172;28;20039;-75
2022/02/21 07:05:15;;;;;;;10.02;1.58;;;;;;;;;;5052740;28;20370;-76
2022/02/21 07:07:41;;;;;;;7.95;1.42;;;;;;;;;;5071159;28;20327;-75
2022/02/21 07:10:12;;;;;;;6.38;1.40;;;;;;;;;;5049947;28;20550;-75
2022/02/21 07:12:38;;;;;;;7.85;1.60;;;;;;;;;;5071638;28;20381;-74
2022/02/21 07:15:04;;;;;;;14.02;1.85;;;;;;;;;;5052817;28;20024;-75
2022/02/21 07:17:39;;;;;;;6.47;1.67;;;;;;;;;;5052048;28;20459;-75
2022/02/21 07:20:07;;;;;;;12.50;1.73;;;;;;;;;;5070174;28;20393;-75
2022/02/21 07:22:33;;;;;;;11.70;1.88;;;;;;;;;;5073708;28;20032;-74
2022/02/21 07:24:58;;;;;;;7.53;1.55;;;;;;;;;;5056477;28;20032;-75
2022/02/21 07:27:24;;;;;;;8.02;1.63;;;;;;;;;;5073181;28;20024;-75
2022/02/21 07:29:50;;;;;;;5.63;1.50;;;;;;;;;;5074272;28;20042;-74
2022/02/21 07:32:15;;;;;;;12.90;2.63;;;;;;;;;;5088577;28;20068;-74
2022/02/21 07:34:40;;;;;;;10.23;1.88;;;;;;;;;;5074437;28;20024;-75
2022/02/21 07:37:07;;;;;;;10.85;2.15;;;;;;;;;;5071712;28;20036;-75
2022/02/21 07:39:33;;;;;;;5.88;1.45;;;;;;;;;;5050023;28;20052;-74
2022/02/21 07:41:59;;;;;;;10.52;1.80;;;;;;;;;;5068474;28;20051;-74
2022/02/21 07:44:25;;;;;;;11.10;1.50;;;;;;;;;;5052203;28;20028;-75
2022/02/21 07:46:51;;;;;;;12.70;2.45;;;;;;;;;;5067561;28;20499;-77
2022/02/21 07:49:17;;;;;;;13.63;2.13;;;;;;;;;;5067732;28;20025;-75
2022/02/21 07:51:43;;;;;;;12.57;2.30;;;;;;;;;;5069290;28;20048;-75
2022/02/21 07:54:08;;;;;;;10.55;2.20;;;;;;;;;;5067567;28;20295;-74
2022/02/21 07:56:34;;;;;;;11.73;2.35;;;;;;;;;;5064516;28;20036;-75
2022/02/21 07:58:59;;;;;;;15.75;1.90;;;;;;;;;;5052625;28;20157;-74
2022/02/21 08:01:25;;;;;;;14.20;2.15;;;;;;;;;;5065194;28;20073;-75
2022/02/21 08:03:50;;;;;;;12.18;1.83;;;;;;;;;;5067971;28;20027;-75
2022/02/21 08:06:18;;;;;;;12.05;1.88;;;;;;;;;;5050993;28;20139;-75
2022/02/21 08:08:44;;;;;;;13.68;2.20;;;;;;;;;;5068522;28;20039;-74
2022/02/21 08:11:12;;;;;;;8.25;1.42;;;;;;;;;;5069248;28;20029;-74
2022/02/21 08:13:40;;;;;;;5.32;2.03;;;;;;;;;;5064040;28;20032;-74
2022/02/21 08:16:05;;;;;;;9.95;2.00;;;;;;;;;;5066398;28;20427;-74
2022/02/21 08:18:33;;;;;;;6.38;1.60;;;;;;;;;;5064391;28;20017;-75
2022/02/21 08:21:01;;;;;;;13.80;1.88;;;;;;;;;;5064649;28;20110;-75
2022/02/21 08:23:26;;;;;;;14.30;1.98;;;;;;;;;;5068281;28;20021;-74
2022/02/21 08:25:52;;;;;;;10.82;2.08;;;;;;;;;;5050329;28;20034;-74
2022/02/21 08:28:18;;;;;;;10.63;1.60;;;;;;;;;;5068376;28;20199;-74
2022/02/21 08:30:44;;;;;;;12.93;1.95;;;;;;;;;;5046898;28;20404;-75
2022/02/21 08:33:09;;;;;;;12.85;1.90;;;;;;;;;;5070617;28;20082;-75
2022/02/21 08:35:35;;;;;;;13.02;1.90;;;;;;;;;;5050359;28;20036;-74
2022/02/21 08:38:02;;;;;;;7.97;2.20;;;;;;;;;;5048248;28;20035;-73
2022/02/21 08:40:28;;;;;;;8.70;1.20;;;;;;;;;;5068791;28;20054;-74
2022/02/21 08:42:53;;;;;;;7.30;1.98;;;;;;;;;;5069524;28;20099;-75
2022/02/21 08:45:19;;;;;;;10.68;1.67;;;;;;;;;;5069875;28;20036;-74
2022/02/21 08:47:44;;;;;;;11.25;1.95;;;;;;;;;;5066892;28;20031;-74
2022/02/21 08:50:11;;;;;;;6.35;1.27;;;;;;;;;;5075242;28;20068;-74
2022/02/21 08:52:40;;;;;;;12.82;2.08;;;;;;;;;;5073293;28;20099;-74
2022/02/21 08:55:11;;;;;;;11.82;1.90;;;;;;;;;;5074818;28;20032;-75
2022/02/21 08:57:37;;;;;;;8.50;1.52;;;;;;;;;;5072620;28;20032;-75
2022/02/21 09:00:07;;;;;;;9.07;1.73;;;;;;;;;;5072962;28;20025;-74
2022/02/21 09:02:33;;;;;;;13.77;2.13;;;;;;;;;;5071118;28;20442;-75
2022/02/21 09:05:00;;;;;;;4.85;1.23;;;;;;;;;;5054510;28;20020;-74
2022/02/21 09:07:26;;;;;;;10.55;2.08;;;;;;;;;;5071684;28;20009;-75
2022/02/21 09:09:51;;;;;;;11.18;1.75;;;;;;;;;;5053079;28;20021;-75
2022/02/21 09:12:17;;;;;;;12.55;2.13;;;;;;;;;;5072269;28;20048;-74
2022/02/21 09:14:47;;;;;;;10.20;2.00;;;;;;;;;;5056920;28;20032;-74
2022/02/21 09:17:14;;;;;;;15.00;1.85;;;;;;;;;;5069406;28;20025;-75
2022/02/21 09:19:40;;;;;;;8.65;1.67;;;;;;;;;;5071700;28;20544;-75
2022/02/21 09:22:05;;;;;;;13.98;1.60;;;;;;;;;;5053170;28;20039;-74
2022/02/21 09:24:31;;;;;;;15.82;2.47;;;;;;;;;;5055579;28;20025;-74
2022/02/21 09:26:56;;;;;;;9.15;1.77;;;;;;;;;;5070369;28;20021;-74
2022/02/21 09:29:23;;;;;;;9.15;1.80;;;;;;;;;;5066911;28;20146;-74
2022/02/21 09:31:49;;;;;;;8.75;1.52;;;;;;;;;;5071399;28;20036;-75
2022/02/21 09:34:14;;;;;;;10.50;2.70;;;;;;;;;;5068967;28;20040;-75
2022/02/21 09:36:40;;;;;;;16.08;1.70;;;;;;;;;;5054218;28;20047;-74
2022/02/21 09:39:05;;;;;;;18.33;2.35;;;;;;;;;;5051492;28;20123;-74
2022/02/21 09:41:31;;;;;;;10.20;2.08;;;;;;;;;;5068462;28;20032;-75
2022/02/21 09:43:57;;;;;;;9.82;2.65;;;;;;;;;;5072866;28;20109;-74
2022/02/21 09:46:31;;;;;;;14.20;2.03;;;;;;;;;;5054234;28;20074;-75
2022/02/21 09:49:01;;;;;;;14.05;2.28;;;;;;;;;;5070826;28;20031;-74
2022/02/21 09:51:26;;;;;;;14.45;2.08;;;;;;;;;;5071993;28;20028;-74
2022/02/21 09:53:53;;;;;;;11.77;2.28;;;;;;;;;;5054918;28;20024;-75
2022/02/21 09:56:19;;;;;;;8.38;2.58;;;;;;;;;;5050740;28;20044;-75
2022/02/21 09:58:45;;;;;;;15.88;2.15;;;;;;;;;;5068282;28;20485;-76
2022/02/21 10:01:11;;;;;;;11.30;1.98;;;;;;;;;;5069537;28;20024;-74
2022/02/21 10:03:36;;;;;;;13.23;1.77;;;;;;;;;;5054911;28;20124;-74
2022/02/21 10:06:22;;;;;;;20.58;2.40;;;;;;;;;;5070089;28;20572;-75
2022/02/21 10:08:57;;;;;;;10.52;2.22;;;;;;;;;;5071607;28;20111;-74
2022/02/21 10:11:33;;;;;;;18.73;3.78;;;;;;;;;;5069521;28;20028;-75
2022/02/21 10:14:01;;;;;;;12.48;1.70;;;;;;;;;;5071900;28;20024;-74
2022/02/21 10:16:41;;;;;;;13.68;1.80;;;;;;;;;;5069906;28;20103;-74
2022/02/21 10:19:42;;;;;;;13.27;3.03;;;;;;;;;;5052613;28;20062;-75
2022/02/21 10:22:12;;;;;;;10.80;1.92;;;;;;;;;;5037508;28;20126;-75
2022/02/21 10:24:38;;;;;;;8.85;1.83;;;;;;;;;;5074107;28;20068;-75
2022/02/21 10:27:11;;;;;;;16.95;2.30;;;;;;;;;;5086174;28;20105;-73
2022/02/21 10:29:47;;;;;;;6.72;1.88;;;;;;;;;;5068698;28;20524;-76
2022/02/21 10:32:14;;;;;;;10.68;2.42;;;;;;;;;;5068471;28;20412;-74
2022/02/21 10:34:39;;;;;;;7.43;1.40;;;;;;;;;;5069047;28;20432;-75
2022/02/21 10:37:06;;;;;;;13.40;2.63;;;;;;;;;;5069922;28;20028;-74
2022/02/21 10:39:35;;;;;;;6.00;1.38;;;;;;;;;;5066454;28;20029;-75
2022/02/21 10:42:06;;;;;;;14.15;2.13;;;;;;;;;;5064883;28;20131;-73
2022/02/21 10:44:39;;;;;;;7.57;2.42;;;;;;;;;;5052924;28;20032;-75
2022/02/21 10:47:05;;;;;;;10.70;2.00;;;;;;;;;;5063458;28;20476;-74
2022/02/21 10:49:34;;;;;;;7.45;2.28;;;;;;;;;;5068042;28;20105;-74
2022/02/21 10:52:01;;;;;;;17.42;2.10;;;;;;;;;;5067181;28;20496;-74
2022/02/21 10:54:36;;;;;;;10.85;1.73;;;;;;;;;;5068319;28;20035;-74
2022/02/21 10:57:06;;;;;;;10.23;2.10;;;;;;;;;;5068882;28;20330;-74
2022/02/21 10:59:32;;;;;;;;;;;;;;;;;;5069508;28;20048;-74
2022/02/21 11:02:00;;;;;;;7.72;1.52;;;;;;;;;;5069774;28;19928;-75
2022/02/21 11:04:30;;;;;;;10.18;1.95;;;;;;;;;;5049329;28;20021;-74
2022/02/21 11:06:57;;;;;;;6.90;1.38;;;;;;;;;;5070197;28;20032;-74
2022/02/21 11:09:25;;;;;;;8.10;1.83;;;;;;;;;;5069290;28;20032;-75
2022/02/21 11:11:52;;;;;;;8.80;1.58;;;;;;;;;;5067990;28;20028;-75
2022/02/21 11:14:26;;;;;;;9.02;1.42;;;;;;;;;;5071487;28;20025;-73
2022/02/21 11:16:53;;;;;;;11.48;2.00;;;;;;;;;;5053776;28;20527;-74
2022/02/21 11:19:21;;;;;;;13.32;1.52;;;;;;;;;;5069251;28;20430;-74
2022/02/21 11:21:51;;;;;;;7.68;1.17;;;;;;;;;;5068849;28;20024;-74
2022/02/21 11:24:21;;;;;;;8.27;1.65;;;;;;;;;;5066310;28;20036;-75
2022/02/21 11:26:53;;;;;;;6.70;1.55;;;;;;;;;;5066843;28;20544;-75
2022/02/21 11:29:35;;;;;;;8.07;1.90;;;;;;;;;;5069616;28;20071;-74
2022/02/21 11:32:03;;;;;;;9.35;1.55;;;;;;;;;;5065741;28;20115;-74
2022/02/21 11:34:28;;;;;;;8.43;1.30;;;;;;;;;;5068590;28;20024;-74
2022/02/21 11:36:57;;;;;;;9.55;1.95;;;;;;;;;;5064760;28;20158;-74
2022/02/21 11:39:32;;;;;;;7.32;1.52;;;;;;;;;;5051165;28;20062;-74
2022/02/21 11:42:16;;;;;;;9.50;1.60;;;;;;;;;;5045210;28;20036;-75
2022/02/21 11:44:53;;;;;;;8.77;1.75;;;;;;;;;;5068140;28;20054;-75
2022/02/21 11:47:39;;;;;;;12.45;2.75;;;;;;;;;;5067179;28;20036;-73
2022/02/21 11:50:24;;;;;;;12.70;1.98;;;;;;;;;;5068066;28;20082;-73
2022/02/21 11:52:55;;;;;;;9.75;1.98;;;;;;;;;;5070413;28;20454;-73
2022/02/21 11:55:32;;;;;;;8.27;1.65;;;;;;;;;;5079744;28;20367;-73
2022/02/21 11:58:18;;;;;;;10.88;2.92;;;;;;;;;;5068652;28;20028;-74
2022/02/21 12:00:48;;;;;;;7.88;1.60;;;;;;;;;;5037327;28;20424;-74
2022/02/21 12:03:21;;;;;;;5.55;2.58;;;;;;;;;;5068410;28;20024;-74
2022/02/21 12:06:09;;;;;;;7.85;1.70;;;;;;;;;;5060199;28;20100;-74
2022/02/21 12:08:39;;;;;;;9.27;1.73;;;;;;;;;;5065363;28;20086;-74
2022/02/21 12:11:07;;;;;;;;;;;;;;;;;;5065240;28;20031;-74
2022/02/21 12:13:55;;;;;;;8.25;1.88;;;;;;;;;;5064835;28;19916;-74
2022/02/21 12:16:20;;;;;;;8.88;2.00;;;;;;;;;;5046537;28;20107;-74
2022/02/21 12:18:48;;;;;;;5.28;1.60;;;;;;;;;;5050185;28;20135;-74
2022/02/21 12:21:24;;;;;;;9.45;1.50;;;;;;;;;;5067687;28;20070;-74
2022/02/21 12:23:53;;;;;;;7.55;1.80;;;;;;;;;;5049365;28;20028;-75
2022/02/21 12:26:19;;;;;;;5.53;1.38;;;;;;;;;;5042014;28;20028;-75
2022/02/21 12:29:05;;;;;;;7.95;1.60;;;;;;;;;;5067251;28;20551;-75
2022/02/21 12:31:32;;;;;;;4.32;1.45;;;;;;;;;;5047241;28;20032;-76
2022/02/21 12:34:04;;;;;;;7.43;1.40;;;;;;;;;;5067796;28;20028;-75
2022/02/21 12:36:40;;;;;;;6.00;1.40;;;;;;;;;;5065471;28;20078;-77
2022/02/21 12:39:11;;;;;;;3.92;1.17;;;;;;;;;;5068000;28;20033;-76
2022/02/21 12:41:39;;;;;;;11.85;2.60;;;;;;;;;;5059292;28;20040;-75
2022/02/21 12:44:12;;;;;;;7.85;1.50;;;;;;;;;;5072286;28;20028;-75
2022/02/21 12:46:40;;;;;;;7.43;1.25;;;;;;;;;;5051112;28;20028;-75
2022/02/21 12:49:14;;;;;;;3.58;0.88;;;;;;;;;;5065607;28;20051;-75
2022/02/21 12:51:40;;;;;;;6.75;1.40;;;;;;;;;;5069227;28;20249;-76
2022/02/21 12:54:10;;;;;;;8.07;1.40;;;;;;;;;;5050745;28;20506;-76
2022/02/21 12:56:48;;;;;;;6.82;1.13;;;;;;;;;;5051594;28;20044;-76
2022/02/21 12:59:15;;;;;;;4.43;1.48;;;;;;;;;;5056154;28;20040;-76
2022/02/21 13:01:41;;;;;;;7.65;1.30;;;;;;;;;;5068508;28;20085;-75
2022/02/21 13:04:08;;;;;;;10.25;2.45;;;;;;;;;;5048978;28;20448;-76
2022/02/21 13:06:34;;;;;;;8.98;1.63;;;;;;;;;;5068424;28;20031;-77
2022/02/21 13:09:00;;;;;;;7.75;1.77;;;;;;;;;;5049995;28;20024;-76
2022/02/21 13:11:26;;;;;;;8.48;1.30;;;;;;;;;;5066105;28;20078;-74
2022/02/21 13:13:53;;;;;;;8.43;1.42;;;;;;;;;;5049117;28;20094;-77
2022/02/21 13:16:21;;;;;;;7.57;1.90;;;;;;;;;;5068346;28;20055;-77
2022/02/21 13:18:54;;;;;;;5.07;1.13;;;;;;;;;;5067527;28;20395;-76
2022/02/21 13:21:30;;;;;;;7.28;1.65;;;;;;;;;;5067047;28;20036;-77
2022/02/21 13:23:59;;;;;;;11.95;1.70;;;;;;;;;;5046325;28;20165;-76
2022/02/21 13:26:25;;;;;;;6.03;1.27;;;;;;;;;;5067002;28;20329;-76
2022/02/21 13:28:51;;;;;;;9.13;1.70;;;;;;;;;;5064124;28;20036;-76
2022/02/21 13:31:17;;;;;;;8.18;1.20;;;;;;;;;;5050235;28;20031;-77
2022/02/21 13:33:49;;;;;;;7.00;1.90;;;;;;;;;;5064758;28;20752;-78
2022/02/21 13:36:22;;;;;;;5.97;1.30;;;;;;;;;;5071869;28;20103;-76
2022/02/21 13:38:55;;;;;;;4.82;0.90;;;;;;;;;;5071614;28;20353;-77
2022/02/21 13:41:21;;;;;;;3.53;1.38;;;;;;;;;;5052910;28;20029;-75
2022/02/21 13:43:47;;;;;;;6.78;1.40;;;;;;;;;;5075947;28;20043;-78
2022/02/21 13:46:13;;;;;;;7.20;1.52;;;;;;;;;;5071278;28;20017;-74
2022/02/21 13:48:51;;;;;;;10.05;2.22;;;;;;;;;;5070417;28;20025;-74
2022/02/21 13:51:20;;;;;;;8.40;1.52;;;;;;;;;;5071610;28;20473;-73
2022/02/21 13:53:48;;;;;;;7.75;1.42;;;;;;;;;;5072013;28;20481;-74
2022/02/21 13:56:23;;;;;;;9.68;1.48;;;;;;;;;;5068901;28;20094;-74
2022/02/21 13:58:58;;;;;;;6.97;1.60;;;;;;;;;;5053339;28;20032;-74
2022/02/21 14:01:28;;;;;;;7.18;1.00;;;;;;;;;;5051991;28;20032;-75
2022/02/21 14:04:04;;;;;;;4.82;1.27;;;;;;;;;;5069725;28;20024;-75
2022/02/21 14:06:35;;;;;;;5.35;1.13;;;;;;;;;;5069377;28;20024;-74
2022/02/21 14:09:03;;;;;;;6.38;1.27;;;;;;;;;;5068845;28;20518;-74
2022/02/21 14:11:29;;;;;;;6.18;1.10;;;;;;;;;;5070435;28;20024;-75
2022/02/21 14:13:56;;;;;;;8.40;1.40;;;;;;;;;;5068277;28;20426;-74
2022/02/21 14:16:23;;;;;;;6.82;1.10;;;;;;;;;;5052710;28;20025;-74
2022/02/21 14:18:49;;;;;;;5.53;1.27;;;;;;;;;;5069489;28;20131;-75
2022/02/21 14:21:15;;;;;;;10.57;1.58;;;;;;;;;;5069156;28;20143;-74
2022/02/21 14:23:42;;;;;;;4.00;0.80;;;;;;;;;;5069264;28;20086;-75
2022/02/21 14:26:08;;;;;;;8.48;1.30;;;;;;;;;;5067743;28;20403;-74
2022/02/21 14:28:34;;;;;;;3.85;0.90;;;;;;;;;;5052700;28;20031;-74
2022/02/21 14:31:01;;;;;;;6.63;1.45;;;;;;;;;;5062759;28;20686;-74
2022/02/21 14:33:27;;;;;;;3.47;1.02;;;;;;;;;;5058369;28;20027;-75
2022/02/21 14:35:53;;;;;;;6.68;1.08;;;;;;;;;;5062237;28;20032;-75
2022/02/21 14:38:19;;;;;;;8.75;1.85;;;;;;;;;;5060838;28;20123;-73
2022/02/21 14:40:44;;;;;;;7.43;1.45;;;;;;;;;;5061242;28;20111;-74
2022/02/21 14:43:10;;;;;;;4.30;1.10;;;;;;;;;;5073222;28;20039;-74